createdAt,value
2022-09-12T06:09:16.511Z,42.98
2022-09-12T06:11:46.064Z,42.61
2022-09-12T06:14:17.631Z,41.64
2022-09-12T06:16:47.409Z,41.82
2022-09-12T06:19:18.021Z,41.62
2022-09-12T06:21:47.836Z,41.75
2022-09-12T06:24:16.357Z,41.42
2022-09-12T06:26:47.620Z,41.81
2022-09-12T06:29:16.502Z,41.01
2022-09-12T06:31:45.042Z,41.35
2022-09-12T06:34:14.659Z,41.35
2022-09-12T06:36:47.704Z,40.66
2022-09-12T06:39:18.775Z,40.91
2022-09-12T06:41:47.232Z,40.81
2022-09-12T06:44:18.829Z,41.18
2022-09-12T06:46:53.005Z,40.86
2022-09-12T06:49:26.878Z,40.43
2022-09-12T06:51:55.163Z,40.80
2022-09-12T06:54:23.771Z,40.98
2022-09-12T06:56:55.091Z,40.61
2022-09-12T06:59:25.087Z,40.00
2022-09-12T07:01:56.348Z,40.14
2022-09-12T07:04:27.024Z,40.90
2022-09-12T07:06:54.958Z,41.24
2022-09-12T07:09:31.002Z,41.42
2022-09-12T07:11:59.755Z,39.82
2022-09-12T07:14:30.905Z,40.47
2022-09-12T07:17:02.840Z,40.67
2022-09-12T07:19:36.410Z,40.85
2022-09-12T07:22:04.463Z,40.49
2022-09-12T07:24:35.634Z,40.86
2022-09-12T07:27:03.506Z,40.35
2022-09-12T07:29:38.781Z,40.75
2022-09-12T07:32:07.281Z,40.90
2022-09-12T07:34:39.354Z,41.10
2022-09-12T07:37:07.971Z,40.79
2022-09-12T07:39:36.534Z,41.19
2022-09-12T07:42:04.823Z,40.84
2022-09-12T07:44:35.658Z,40.62
2022-09-12T07:47:07.175Z,40.87
2022-09-12T07:49:37.782Z,40.83
2022-09-12T07:52:09.225Z,41.00
2022-09-12T07:54:41.581Z,41.47
2022-09-12T07:57:10.173Z,40.98
2022-09-12T07:59:52.485Z,40.87
2022-09-12T08:02:20.920Z,41.05
2022-09-12T08:04:49.322Z,41.54
2022-09-12T08:07:18.543Z,41.72
2022-09-12T08:09:48.959Z,41.32
2022-09-12T08:12:18.011Z,41.40
2022-09-12T08:14:46.223Z,41.82
2022-09-12T08:17:17.079Z,41.73
2022-09-12T08:19:50.121Z,41.40
2022-09-12T08:22:23.451Z,41.23
2022-09-12T08:24:54.665Z,41.30
2022-09-12T08:27:25.619Z,41.29
2022-09-12T08:29:56.936Z,40.98
2022-09-12T08:32:27.506Z,40.96
2022-09-12T08:34:55.523Z,40.91
2022-09-12T08:37:26.166Z,40.46
2022-09-12T08:39:56.405Z,40.37
2022-09-12T08:42:56.276Z,40.42
2022-09-12T08:45:43.401Z,40.15
2022-09-12T08:48:12.918Z,40.67
2022-09-12T08:50:49.339Z,40.74
2022-09-12T08:53:23.769Z,39.65
2022-09-12T08:55:58.718Z,39.61
2022-09-12T08:58:41.289Z,40.24
2022-09-12T09:01:31.578Z,40.10
2022-09-12T09:04:50.460Z,39.29
2022-09-12T09:07:57.135Z,39.95
2022-09-12T09:10:53.037Z,40.32
2022-09-12T09:14:09.744Z,39.90
2022-09-12T09:16:46.150Z,39.83
2022-09-12T09:19:24.114Z,39.97
2022-09-12T09:22:03.732Z,40.59
2022-09-12T09:24:42.380Z,40.06
2022-09-12T09:27:39.774Z,40.25
2022-09-12T09:30:21.454Z,39.93
2022-09-12T09:32:57.087Z,40.70
2022-09-12T09:35:49.068Z,40.77
2022-09-12T09:38:25.500Z,40.23
2022-09-12T09:41:08.661Z,40.63
2022-09-12T09:43:38.210Z,40.89
2022-09-12T09:46:07.167Z,40.43
2022-09-12T09:48:54.274Z,40.62
2022-09-12T09:51:28.178Z,40.62
2022-09-12T09:54:04.050Z,41.13
2022-09-12T09:56:36.164Z,41.10
2022-09-12T09:59:18.192Z,40.68
2022-09-12T10:02:06.856Z,40.85
2022-09-12T10:04:41.616Z,41.16
2022-09-12T10:07:19.918Z,40.89
2022-09-12T10:10:14.413Z,41.37
2022-09-12T10:12:46.270Z,41.53
2022-09-12T10:15:35.337Z,41.73
2022-09-12T10:18:06.096Z,41.96
2022-09-12T10:20:47.817Z,41.96
2022-09-12T10:23:36.291Z,41.95
2022-09-12T10:26:15.132Z,42.06
2022-09-12T10:28:54.246Z,42.28
2022-09-12T10:31:35.425Z,42.29
2022-09-12T10:34:19.483Z,42.30
2022-09-12T10:36:47.747Z,42.48
2022-09-12T10:39:22.626Z,42.26
2022-09-12T10:41:55.182Z,42.00
2022-09-12T10:44:31.152Z,41.78
2022-09-12T10:47:36.195Z,42.01
2022-09-12T10:50:41.350Z,42.51
2022-09-12T10:53:34.649Z,41.87
2022-09-12T10:56:10.247Z,42.07
2022-09-12T10:59:00.361Z,42.43
2022-09-12T11:01:42.015Z,41.92
2022-09-12T11:04:37.167Z,41.74
2022-09-12T11:07:31.822Z,41.97
2022-09-12T11:10:28.978Z,42.05
2022-09-12T11:13:21.884Z,42.07
2022-09-12T11:16:33.583Z,42.09
2022-09-12T11:19:28.955Z,41.98
2022-09-12T11:22:22.140Z,41.98
2022-09-12T11:25:12.025Z,41.78
2022-09-12T11:27:55.592Z,41.76
2022-09-12T11:30:28.939Z,41.77
2022-09-12T11:33:07.790Z,41.96
2022-09-12T11:35:55.249Z,41.48
2022-09-12T11:38:41.461Z,41.74
2022-09-12T11:41:25.280Z,41.96
2022-09-12T11:43:59.537Z,42.01
2022-09-12T11:46:37.025Z,41.80
2022-09-12T11:49:22.646Z,41.74
2022-09-12T11:52:06.336Z,42.26
2022-09-12T11:54:43.052Z,42.37
2022-09-12T11:57:28.414Z,41.83
2022-09-12T12:00:06.856Z,41.59
2022-09-12T12:03:09.924Z,41.95
2022-09-12T12:05:48.147Z,42.30
2022-09-12T12:08:23.415Z,41.67
2022-09-12T12:11:00.176Z,41.46
2022-09-12T12:13:52.155Z,41.83
2022-09-12T12:16:33.462Z,42.36
2022-09-12T12:19:34.627Z,41.55
2022-09-12T12:22:17.131Z,41.97
2022-09-12T12:25:08.378Z,41.84
2022-09-12T12:28:01.548Z,42.17
2022-09-12T12:30:37.999Z,41.69
2022-09-12T12:33:13.340Z,41.68
2022-09-12T12:36:02.648Z,41.92
2022-09-12T12:38:34.309Z,42.19
2022-09-12T12:41:19.830Z,41.69
2022-09-12T12:43:56.451Z,41.43
2022-09-12T12:46:31.779Z,41.67
2022-09-12T12:49:30.517Z,41.57
2022-09-12T12:52:06.488Z,41.45
2022-09-12T12:54:52.044Z,42.09
2022-09-12T12:57:28.271Z,42.31
2022-09-12T13:00:07.156Z,41.81
2022-09-12T13:03:11.688Z,41.52
2022-09-12T13:05:51.578Z,42.12
2022-09-12T13:08:44.800Z,42.38
2022-09-12T13:11:30.949Z,42.16
2022-09-12T13:14:04.527Z,41.93
2022-09-12T13:16:52.338Z,42.22
2022-09-12T13:19:32.747Z,42.17
2022-09-12T13:22:04.019Z,41.88
2022-09-12T13:24:42.404Z,42.05
2022-09-12T13:27:25.807Z,41.62
2022-09-12T13:30:14.468Z,41.75
2022-09-12T13:32:50.976Z,41.49
2022-09-12T13:35:47.211Z,42.07
2022-09-12T13:38:55.794Z,42.17
2022-09-12T13:41:26.787Z,41.89
2022-09-12T13:43:57.698Z,41.55
2022-09-12T13:46:31.586Z,41.73
2022-09-12T13:49:10.348Z,42.51
2022-09-12T13:51:43.482Z,42.11
2022-09-12T13:54:24.307Z,41.92
2022-09-12T13:56:55.330Z,41.97
2022-09-12T13:59:26.410Z,41.88
2022-09-12T14:02:02.393Z,41.56
2022-09-12T14:04:55.036Z,41.33
2022-09-12T14:07:26.594Z,41.32
2022-09-12T14:10:01.334Z,41.31
2022-09-12T14:12:40.362Z,41.61
2022-09-12T14:15:27.418Z,41.49
2022-09-12T14:18:01.311Z,41.37
2022-09-12T14:20:36.319Z,41.45
2022-09-12T14:23:30.348Z,41.21
2022-09-12T14:26:00.325Z,41.71
2022-09-12T14:28:29.205Z,41.75
2022-09-12T14:31:22.774Z,41.91
2022-09-12T14:33:53.983Z,41.39
2022-09-12T14:36:34.594Z,41.75
2022-09-12T14:39:06.904Z,41.90
2022-09-12T14:41:41.508Z,41.81
2022-09-12T14:44:25.349Z,41.54
2022-09-12T14:46:53.374Z,42.40
2022-09-12T14:49:27.796Z,42.14
2022-09-12T14:52:06.059Z,41.84
2022-09-12T14:54:42.753Z,41.18
2022-09-12T14:57:34.848Z,41.88
2022-09-12T15:00:23.423Z,41.88
2022-09-12T15:02:55.072Z,41.67
2022-09-12T15:05:28.535Z,41.28
2022-09-12T15:08:01.167Z,42.01
2022-09-12T15:10:37.798Z,41.92
2022-09-12T15:13:17.392Z,41.96
2022-09-12T15:16:16.987Z,41.73
2022-09-12T15:18:50.038Z,41.76
2022-09-12T15:21:21.481Z,42.20
2022-09-12T15:23:54.159Z,41.72
2022-09-12T15:26:27.983Z,41.78
2022-09-12T15:28:58.152Z,41.69
2022-09-12T15:31:34.955Z,42.08
2022-09-12T15:34:04.891Z,41.59
2022-09-12T15:36:36.196Z,42.04
2022-09-12T15:39:03.953Z,42.14
2022-09-12T15:41:37.189Z,41.61
2022-09-12T15:44:09.014Z,41.55
2022-09-12T15:46:47.636Z,41.31
2022-09-12T15:49:18.745Z,41.85
2022-09-12T15:51:54.870Z,41.94
2022-09-12T15:54:28.687Z,41.63
2022-09-12T15:56:59.652Z,41.51
2022-09-12T15:59:32.807Z,41.54
2022-09-12T16:02:03.920Z,41.77
2022-09-12T16:04:34.836Z,42.29
2022-09-12T16:07:05.797Z,41.80
2022-09-12T16:09:37.053Z,41.62
2022-09-12T16:12:05.164Z,42.04
2022-09-12T16:14:44.900Z,41.82
2022-09-12T16:17:20.571Z,41.41
2022-09-12T16:19:57.756Z,41.87
2022-09-12T16:22:28.101Z,41.94
2022-09-12T16:24:55.749Z,41.96
2022-09-12T16:27:26.362Z,41.66
2022-09-12T16:29:57.803Z,42.09
2022-09-12T16:32:27.051Z,42.03
2022-09-12T16:35:03.576Z,42.71
2022-09-12T16:37:36.161Z,42.43
2022-09-12T16:40:05.687Z,42.13
2022-09-12T16:42:36.045Z,41.86
2022-09-12T16:45:03.723Z,41.42
2022-09-12T16:47:34.605Z,41.03
2022-09-12T16:50:02.108Z,41.08
2022-09-12T16:52:31.265Z,41.03
2022-09-12T16:55:04.666Z,40.87
2022-09-12T16:57:32.806Z,41.13
2022-09-12T17:00:03.878Z,41.10
2022-09-12T17:02:31.403Z,41.22
2022-09-12T17:05:05.560Z,41.05
2022-09-12T17:07:34.223Z,41.12
2022-09-12T17:10:01.821Z,41.03
2022-09-12T17:12:35.289Z,41.17
2022-09-12T17:15:04.364Z,40.98
2022-09-12T17:17:32.082Z,40.86
2022-09-12T17:20:02.640Z,41.36
2022-09-12T17:22:30.151Z,40.99
2022-09-12T17:25:00.695Z,41.35
2022-09-12T17:27:33.417Z,41.53
2022-09-12T17:30:04.446Z,41.24
2022-09-12T17:32:34.662Z,41.16
2022-09-12T17:35:05.426Z,41.43
2022-09-12T17:37:36.334Z,41.30
2022-09-12T17:40:04.387Z,41.28
2022-09-12T17:42:36.230Z,41.25
2022-09-12T17:45:07.638Z,41.18
2022-09-12T17:47:35.127Z,41.34
2022-09-12T17:50:30.458Z,41.46
2022-09-12T17:52:58.912Z,41.54
2022-09-12T17:55:27.458Z,41.22
2022-09-12T17:57:59.326Z,41.61
2022-09-12T18:00:46.812Z,41.62
2022-09-12T18:03:22.925Z,41.55
2022-09-12T18:05:56.151Z,41.86
2022-09-12T18:08:24.561Z,41.54
2022-09-12T18:10:55.356Z,41.46
2022-09-12T18:13:27.006Z,41.67
2022-09-12T18:16:14.551Z,41.83
2022-09-12T18:18:47.821Z,41.66
2022-09-12T18:21:19.886Z,41.57
2022-09-12T18:23:53.228Z,41.59
2022-09-12T18:26:20.916Z,42.01
2022-09-12T18:28:51.718Z,42.04
2022-09-12T18:31:22.028Z,41.66
2022-09-12T18:33:51.534Z,42.07
2022-09-12T18:36:20.366Z,41.87
2022-09-12T18:38:50.720Z,41.79
2022-09-12T18:41:25.561Z,41.64
2022-09-12T18:43:57.982Z,41.99
2022-09-12T18:46:30.014Z,41.95
2022-09-12T18:49:01.922Z,41.70
2022-09-12T18:51:32.980Z,42.15
2022-09-12T18:54:06.703Z,41.75
2022-09-12T18:56:41.078Z,41.87
2022-09-12T18:59:10.394Z,42.05
2022-09-12T19:01:41.421Z,42.01
2022-09-12T19:04:12.088Z,41.89
2022-09-12T19:06:42.671Z,42.17
2022-09-12T19:09:14.156Z,42.14
2022-09-12T19:11:48.975Z,41.83
2022-09-12T19:14:22.888Z,42.28
2022-09-12T19:16:52.183Z,42.18
2022-09-12T19:19:23.680Z,42.06
2022-09-12T19:21:55.077Z,42.23
2022-09-12T19:24:25.722Z,42.00
2022-09-12T19:26:56.968Z,42.30
2022-09-12T19:29:24.676Z,42.17
2022-09-12T19:31:57.418Z,42.11
2022-09-12T19:34:27.370Z,42.01
2022-09-12T19:36:59.497Z,42.48
2022-09-12T19:39:31.818Z,42.42
2022-09-12T19:42:04.766Z,42.51
2022-09-12T19:44:35.923Z,42.60
2022-09-12T19:47:03.958Z,42.35
2022-09-12T19:49:31.940Z,42.33
2022-09-12T19:52:05.787Z,42.31
2022-09-12T19:54:38.923Z,42.23
2022-09-12T19:57:09.264Z,42.43
2022-09-12T19:59:39.829Z,42.27
2022-09-12T20:02:10.920Z,42.26
2022-09-12T20:04:41.977Z,42.22
2022-09-12T20:07:14.732Z,42.42
2022-09-12T20:09:45.216Z,42.46
2022-09-12T20:12:14.596Z,42.29
2022-09-12T20:14:43.119Z,42.40
2022-09-12T20:17:13.658Z,42.17
2022-09-12T20:19:44.374Z,42.49
2022-09-12T20:22:15.598Z,42.41
2022-09-12T20:24:43.441Z,42.43
2022-09-12T20:27:13.874Z,42.51
2022-09-12T20:29:41.502Z,42.61
2022-09-12T20:32:12.184Z,42.36
2022-09-12T20:34:39.945Z,42.27
2022-09-12T20:37:10.385Z,42.62
2022-09-12T20:39:41.446Z,42.17
2022-09-12T20:42:12.141Z,42.54
2022-09-12T20:44:42.754Z,42.48
2022-09-12T20:47:13.281Z,42.28
2022-09-12T20:49:43.878Z,42.58
2022-09-12T20:52:16.751Z,42.28
2022-09-12T20:54:50.729Z,42.61
2022-09-12T20:57:21.508Z,42.50
2022-09-12T20:59:52.249Z,42.44
2022-09-12T21:02:20.784Z,42.50
2022-09-12T21:04:51.912Z,42.69
2022-09-12T21:07:25.039Z,42.72
2022-09-12T21:09:55.265Z,42.33
2022-09-12T21:12:31.189Z,42.44
2022-09-12T21:15:04.542Z,42.44
2022-09-12T21:17:32.253Z,42.27
2022-09-12T21:20:08.026Z,42.32
2022-09-12T21:22:39.121Z,42.36
2022-09-12T21:25:07.578Z,42.08
2022-09-12T21:27:35.424Z,42.32
2022-09-12T21:30:09.602Z,42.21
2022-09-12T21:32:40.911Z,42.36
2022-09-12T21:35:14.288Z,41.93
2022-09-12T21:37:45.024Z,41.95
2022-09-12T21:40:21.816Z,41.85
2022-09-12T21:42:52.301Z,41.72
2022-09-12T21:45:22.986Z,42.07
2022-09-12T21:47:51.111Z,42.05
2022-09-12T21:50:23.818Z,42.02
2022-09-12T21:52:56.642Z,42.31
2022-09-12T21:55:30.396Z,42.00
2022-09-12T21:58:03.868Z,42.01
2022-09-12T22:00:34.947Z,41.97
2022-09-12T22:03:06.103Z,42.15
2022-09-12T22:05:34.565Z,41.90
2022-09-12T22:08:05.122Z,42.10
2022-09-12T22:10:32.883Z,42.32
2022-09-12T22:13:03.349Z,42.14
2022-09-12T22:15:41.274Z,42.04
2022-09-12T22:18:11.771Z,42.25
2022-09-12T22:20:43.314Z,42.39
2022-09-12T22:23:32.515Z,42.17
2022-09-12T22:26:04.230Z,42.26
2022-09-12T22:28:35.939Z,42.19
2022-09-12T22:31:03.617Z,42.28
2022-09-12T22:33:31.776Z,41.97
2022-09-12T22:36:00.459Z,42.21
2022-09-12T22:38:33.242Z,41.82
2022-09-12T22:41:07.863Z,42.19
2022-09-12T22:43:37.252Z,41.88
2022-09-12T22:46:15.085Z,42.13
2022-09-12T22:48:47.903Z,42.19
2022-09-12T22:51:20.900Z,42.18
2022-09-12T22:53:52.198Z,42.30
2022-09-12T22:56:22.695Z,41.91
2022-09-12T22:58:53.129Z,41.99
2022-09-12T23:01:21.746Z,42.10
2022-09-12T23:03:56.499Z,42.01
2022-09-12T23:06:27.790Z,42.17
2022-09-12T23:08:56.391Z,42.21
2022-09-12T23:11:32.192Z,42.39
2022-09-12T23:14:02.949Z,42.20
2022-09-12T23:16:32.324Z,42.28
2022-09-12T23:19:04.287Z,42.48
2022-09-12T23:21:34.683Z,42.30
2022-09-12T23:24:06.203Z,42.32
2022-09-12T23:26:37.061Z,42.44
2022-09-12T23:29:10.550Z,42.72
2022-09-12T23:31:40.860Z,42.57
2022-09-12T23:34:10.822Z,42.70
2022-09-12T23:36:44.144Z,42.69
2022-09-12T23:39:11.820Z,42.82
2022-09-12T23:41:42.842Z,43.14
2022-09-12T23:44:13.250Z,43.01
2022-09-12T23:46:40.877Z,43.12
2022-09-12T23:49:11.403Z,42.57
2022-09-12T23:51:41.749Z,43.02
2022-09-12T23:54:09.641Z,42.87
2022-09-12T23:56:43.730Z,43.01
2022-09-12T23:59:11.463Z,42.93
